createdAt,value
2018-08-16T00:00:37.482Z,59.50
2018-08-16T00:02:42.038Z,59.50
2018-08-16T00:04:46.592Z,59.60
2018-08-16T00:06:51.270Z,59.60
2018-08-16T00:08:55.730Z,59.60
2018-08-16T00:11:00.235Z,59.50
2018-08-16T00:13:04.786Z,59.50
2018-08-16T00:15:09.462Z,59.50
2018-08-16T00:17:13.937Z,59.50
2018-08-16T00:19:18.350Z,59.60
2018-08-16T00:21:22.803Z,59.60
2018-08-16T00:23:29.443Z,59.70
2018-08-16T00:25:35.614Z,59.60
2018-08-16T00:27:42.077Z,59.60
2018-08-16T00:29:46.822Z,59.60
2018-08-16T00:31:51.255Z,59.70
2018-08-16T00:33:55.747Z,59.70
2018-08-16T00:36:00.170Z,59.90
2018-08-16T00:38:04.699Z,59.90
2018-08-16T00:40:13.406Z,60.00
2018-08-16T00:42:17.890Z,59.90
2018-08-16T00:44:23.111Z,59.90
2018-08-16T00:46:27.554Z,59.80
2018-08-16T00:48:32.120Z,59.80
2018-08-16T00:50:36.534Z,59.80
2018-08-16T00:52:41.031Z,59.70
2018-08-16T00:54:45.638Z,60.50
2018-08-16T00:56:50.058Z,59.70
2018-08-16T00:58:54.854Z,59.80
2018-08-16T01:01:01.697Z,59.90
2018-08-16T01:03:08.015Z,60.00
2018-08-16T01:05:16.040Z,59.90
2018-08-16T01:07:25.377Z,60.00
2018-08-16T01:09:32.840Z,60.00
2018-08-16T01:11:40.353Z,60.00
2018-08-16T01:13:48.134Z,60.10
2018-08-16T01:15:54.833Z,60.20
2018-08-16T01:18:03.007Z,60.20
2018-08-16T01:20:08.908Z,60.30
2018-08-16T01:22:13.463Z,60.40
2018-08-16T01:24:19.894Z,60.40
2018-08-16T01:26:26.670Z,60.40
2018-08-16T01:28:32.186Z,60.40
2018-08-16T01:30:37.798Z,60.40
2018-08-16T01:32:45.291Z,60.40
2018-08-16T01:34:53.160Z,60.50
2018-08-16T01:37:02.472Z,60.60
2018-08-16T01:39:11.153Z,60.60
2018-08-16T01:41:18.610Z,60.60
2018-08-16T01:43:24.414Z,60.50
2018-08-16T01:45:31.166Z,60.90
2018-08-16T01:47:37.727Z,60.60
2018-08-16T01:49:44.863Z,60.60
2018-08-16T01:51:51.478Z,60.70
2018-08-16T01:53:58.269Z,60.80
2018-08-16T01:56:04.035Z,60.90
2018-08-16T01:58:09.930Z,61.10
2018-08-16T02:00:14.450Z,61.10
2018-08-16T02:02:19.227Z,61.10
2018-08-16T02:04:23.691Z,61.30
2018-08-16T02:06:28.112Z,61.40
2018-08-16T02:08:34.620Z,61.60
2018-08-16T02:10:41.894Z,61.60
2018-08-16T02:12:48.356Z,61.50
2018-08-16T02:14:55.885Z,61.40
2018-08-16T02:17:03.391Z,61.30
2018-08-16T02:19:10.638Z,61.30
2018-08-16T02:21:16.932Z,61.10
2018-08-16T02:23:23.566Z,61.20
2018-08-16T02:25:28.267Z,61.20
2018-08-16T02:27:32.736Z,61.10
2018-08-16T02:29:37.491Z,61.20
2018-08-16T02:31:41.985Z,61.20
2018-08-16T02:33:46.529Z,61.30
2018-08-16T02:35:50.972Z,61.30
2018-08-16T02:37:55.392Z,61.30
2018-08-16T02:39:59.875Z,61.40
2018-08-16T02:42:04.371Z,61.40
2018-08-16T02:44:09.507Z,61.40
2018-08-16T02:46:13.976Z,61.40
2018-08-16T02:48:18.403Z,61.50
2018-08-16T02:50:22.846Z,61.70
2018-08-16T02:52:27.477Z,61.70
2018-08-16T02:54:31.896Z,61.80
2018-08-16T02:56:36.354Z,61.70
2018-08-16T02:58:40.770Z,61.80
2018-08-16T03:00:45.273Z,61.80
2018-08-16T03:02:49.698Z,61.80
2018-08-16T03:04:54.137Z,61.80
2018-08-16T03:06:58.609Z,61.70
2018-08-16T03:09:03.171Z,61.70
2018-08-16T03:11:08.432Z,61.60
2018-08-16T03:13:12.862Z,61.50
2018-08-16T03:15:17.358Z,61.60
2018-08-16T03:17:21.810Z,61.70
2018-08-16T03:19:26.398Z,61.80
2018-08-16T03:21:30.866Z,61.70
2018-08-16T03:23:35.286Z,61.70
2018-08-16T03:25:39.715Z,61.70
2018-08-16T03:27:44.129Z,61.80
2018-08-16T03:29:48.551Z,61.80
2018-08-16T03:31:53.037Z,62.00
2018-08-16T03:33:57.470Z,62.00
2018-08-16T03:36:01.933Z,62.10
2018-08-16T03:38:07.126Z,62.00
2018-08-16T03:40:11.598Z,62.10
2018-08-16T03:42:16.050Z,61.80
2018-08-16T03:44:20.520Z,62.40
2018-08-16T03:46:24.989Z,62.50
2018-08-16T03:48:29.537Z,62.40
2018-08-16T03:50:34.025Z,62.40
2018-08-16T03:52:38.610Z,62.60
2018-08-16T03:54:43.034Z,62.50
2018-08-16T03:56:47.458Z,62.50
2018-08-16T03:58:51.874Z,62.40
2018-08-16T04:00:56.338Z,62.40
2018-08-16T04:03:04.469Z,62.30
2018-08-16T04:05:12.239Z,62.40
2018-08-16T04:07:17.623Z,62.40
2018-08-16T04:09:23.236Z,62.20
2018-08-16T04:11:29.681Z,62.30
2018-08-16T04:13:36.219Z,62.60
2018-08-16T04:15:42.934Z,62.80
2018-08-16T04:17:47.352Z,62.60
2018-08-16T04:19:52.369Z,62.60
2018-08-16T04:21:56.896Z,62.60
2018-08-16T04:24:01.379Z,62.60
2018-08-16T04:26:05.822Z,62.80
2018-08-16T04:28:10.232Z,62.90
2018-08-16T04:30:14.686Z,62.80
2018-08-16T04:32:19.102Z,62.80
2018-08-16T04:34:23.502Z,62.70
2018-08-16T04:36:27.962Z,62.70
2018-08-16T04:38:32.408Z,62.70
2018-08-16T04:40:36.883Z,62.90
2018-08-16T04:42:41.331Z,63.00
2018-08-16T04:44:45.730Z,62.90
2018-08-16T04:46:50.158Z,63.00
2018-08-16T04:48:54.602Z,63.10
2018-08-16T04:50:59.058Z,63.10
2018-08-16T04:53:03.504Z,63.00
2018-08-16T04:55:08.850Z,63.00
2018-08-16T04:57:13.307Z,63.20
2018-08-16T04:59:17.754Z,63.20
2018-08-16T05:01:22.207Z,63.20
2018-08-16T05:03:26.667Z,63.40
2018-08-16T05:05:31.082Z,63.60
2018-08-16T05:07:35.741Z,63.60
2018-08-16T05:09:40.194Z,63.60
2018-08-16T05:11:44.593Z,63.70
2018-08-16T05:13:49.055Z,63.80
2018-08-16T05:15:53.491Z,63.80
2018-08-16T05:17:57.965Z,64.00
2018-08-16T05:20:02.403Z,64.20
2018-08-16T05:22:06.927Z,64.20
2018-08-16T05:24:11.332Z,64.20
2018-08-16T05:26:15.809Z,64.30
2018-08-16T05:28:20.278Z,64.50
2018-08-16T05:30:28.419Z,64.50
2018-08-16T05:32:32.830Z,64.90
2018-08-16T05:34:37.425Z,64.90
2018-08-16T05:36:41.845Z,65.00
2018-08-16T05:38:46.411Z,65.30
2018-08-16T05:40:51.032Z,65.40
2018-08-16T05:42:55.522Z,65.60
2018-08-16T05:44:59.952Z,65.80
2018-08-16T05:47:04.381Z,65.80
2018-08-16T05:49:08.877Z,65.90
2018-08-16T05:51:13.566Z,65.90
2018-08-16T05:53:17.975Z,66.20
2018-08-16T05:55:22.423Z,66.10
2018-08-16T05:57:26.890Z,66.30
2018-08-16T05:59:31.484Z,66.40
2018-08-16T06:01:35.854Z,66.60
2018-08-16T06:03:40.320Z,66.80
2018-08-16T06:05:44.737Z,67.10
2018-08-16T06:07:49.183Z,67.50
2018-08-16T06:09:53.669Z,67.60
2018-08-16T06:11:58.207Z,67.80
2018-08-16T06:14:02.692Z,67.90
2018-08-16T06:16:07.438Z,68.00
2018-08-16T06:18:11.962Z,68.20
2018-08-16T06:20:16.392Z,68.20
2018-08-16T06:22:20.838Z,68.30
2018-08-16T06:24:25.401Z,68.40
2018-08-16T06:26:32.626Z,68.40
2018-08-16T06:28:37.143Z,68.50
2018-08-16T06:30:41.631Z,67.70
2018-08-16T06:32:46.671Z,68.50
2018-08-16T06:34:51.187Z,68.60
2018-08-16T06:36:55.673Z,68.60
2018-08-16T06:39:00.262Z,68.60
2018-08-16T06:41:08.567Z,68.60
2018-08-16T06:43:13.123Z,68.70
2018-08-16T06:45:17.643Z,68.60
2018-08-16T06:47:22.097Z,68.60
2018-08-16T06:49:26.615Z,68.40
2018-08-16T06:51:31.294Z,68.50
2018-08-16T06:53:35.840Z,68.40
2018-08-16T06:55:40.290Z,68.20
2018-08-16T06:57:44.723Z,68.90
2018-08-16T06:59:49.158Z,68.20
2018-08-16T07:01:54.378Z,68.20
2018-08-16T07:03:58.969Z,68.40
2018-08-16T07:06:03.469Z,68.40
2018-08-16T07:08:08.226Z,68.30
2018-08-16T07:10:15.044Z,68.50
2018-08-16T07:12:21.269Z,68.50
2018-08-16T07:14:25.666Z,68.50
2018-08-16T07:16:30.145Z,68.10
2018-08-16T07:18:34.682Z,68.20
2018-08-16T07:20:39.149Z,68.20
2018-08-16T07:22:43.599Z,68.30
2018-08-16T07:24:48.237Z,68.50
2018-08-16T07:26:52.648Z,68.60
2018-08-16T07:28:57.106Z,68.80
2018-08-16T07:31:01.574Z,68.00
2018-08-16T07:33:06.021Z,67.90
2018-08-16T07:35:10.849Z,68.50
2018-08-16T07:37:15.274Z,68.70
2018-08-16T07:39:19.866Z,68.60
2018-08-16T07:41:24.368Z,68.20
2018-08-16T07:43:28.851Z,67.70
2018-08-16T07:45:33.350Z,67.40
2018-08-16T07:47:37.947Z,66.80
2018-08-16T07:49:42.556Z,66.10
2018-08-16T07:51:47.109Z,66.10
2018-08-16T07:53:51.535Z,65.70
2018-08-16T07:55:56.100Z,65.00
2018-08-16T07:58:00.536Z,64.80
2018-08-16T08:00:08.312Z,64.50
2018-08-16T08:02:12.779Z,63.90
2018-08-16T08:04:17.344Z,63.50
2018-08-16T08:06:21.855Z,63.20
2018-08-16T08:08:26.401Z,62.80
2018-08-16T08:10:30.823Z,62.40
2018-08-16T08:12:35.388Z,62.00
2018-08-16T08:14:39.951Z,62.60
2018-08-16T08:16:44.495Z,61.40
2018-08-16T08:18:48.941Z,60.70
2018-08-16T08:20:53.409Z,60.00
2018-08-16T08:22:57.804Z,60.00
2018-08-16T08:25:02.275Z,59.70
2018-08-16T08:27:07.727Z,59.40
2018-08-16T08:29:12.227Z,58.80
2018-08-16T08:31:19.393Z,58.40
2018-08-16T08:33:24.238Z,58.10
2018-08-16T08:35:28.701Z,57.40
2018-08-16T08:37:50.134Z,57.40
2018-08-16T08:39:54.566Z,57.10
2018-08-16T08:41:59.070Z,56.60
2018-08-16T08:44:19.952Z,56.30
2018-08-16T08:46:24.488Z,56.10
2018-08-16T08:48:29.022Z,55.80
2018-08-16T08:50:33.596Z,55.40
2018-08-16T08:52:38.027Z,55.10
2018-08-16T08:54:59.464Z,55.00
2018-08-16T08:57:20.757Z,54.70
2018-08-16T08:59:25.201Z,54.80
2018-08-16T09:01:29.704Z,54.70
2018-08-16T09:03:34.354Z,54.40
2018-08-16T09:05:38.854Z,54.20
2018-08-16T09:07:43.554Z,54.00
2018-08-16T09:11:14.491Z,53.60
2018-08-16T09:13:36.551Z,53.30
2018-08-16T09:15:49.946Z,53.10
2018-08-16T09:17:54.399Z,52.80
2018-08-16T09:19:58.942Z,52.50
2018-08-16T09:22:03.443Z,52.50
2018-08-16T09:24:08.046Z,52.10
2018-08-16T09:26:17.706Z,52.00
2018-08-16T09:28:23.172Z,51.70
2018-08-16T09:30:44.463Z,51.60
2018-08-16T09:33:05.695Z,51.50
2018-08-16T09:35:12.887Z,51.10
2018-08-16T09:37:22.064Z,50.90
2018-08-16T09:39:26.785Z,50.50
2018-08-16T09:41:31.279Z,50.30
2018-08-16T09:43:35.910Z,50.20
2018-08-16T09:46:54.143Z,50.00
2018-08-16T09:48:58.654Z,49.80
2018-08-16T09:51:03.123Z,49.50
2018-08-16T09:53:07.635Z,49.90
2018-08-16T09:55:12.050Z,49.10
2018-08-16T09:57:17.042Z,48.50
2018-08-16T09:59:21.516Z,47.60
2018-08-16T10:01:25.999Z,47.40
2018-08-16T10:03:30.412Z,46.80
2018-08-16T10:05:34.842Z,46.80
2018-08-16T10:07:39.356Z,46.30
2018-08-16T10:09:43.742Z,46.00
2018-08-16T10:11:48.916Z,46.10
2018-08-16T10:13:53.449Z,46.10
2018-08-16T10:15:57.980Z,46.10
2018-08-16T10:18:02.495Z,46.20
2018-08-16T10:20:07.943Z,46.20
2018-08-16T10:22:12.482Z,45.80
2018-08-16T10:24:16.919Z,45.90
2018-08-16T10:26:21.349Z,45.50
2018-08-16T10:28:25.831Z,45.50
2018-08-16T10:30:30.296Z,44.70
2018-08-16T10:32:34.767Z,45.20
2018-08-16T10:34:39.195Z,44.70
2018-08-16T10:36:43.714Z,44.20
2018-08-16T10:38:48.203Z,44.10
2018-08-16T10:40:52.646Z,44.20
2018-08-16T10:42:57.102Z,44.00
2018-08-16T10:45:01.495Z,43.80
2018-08-16T10:47:06.147Z,44.20
2018-08-16T10:49:10.583Z,43.80
2018-08-16T10:51:15.058Z,43.60
2018-08-16T10:53:19.563Z,43.60
2018-08-16T10:55:24.284Z,42.80
2018-08-16T10:57:28.718Z,42.60
2018-08-16T10:59:33.125Z,42.10
2018-08-16T11:01:37.635Z,42.00
2018-08-16T11:03:42.106Z,41.90
2018-08-16T11:05:46.544Z,42.20
2018-08-16T11:07:51.016Z,42.10
2018-08-16T11:09:56.463Z,42.00
2018-08-16T11:12:00.909Z,41.50
2018-08-16T11:14:05.462Z,41.10
2018-08-16T11:16:09.884Z,41.10
2018-08-16T11:18:14.367Z,41.10
2018-08-16T11:20:18.870Z,40.80
2018-08-16T11:22:23.328Z,40.70
2018-08-16T11:24:28.442Z,40.20
2018-08-16T11:26:33.460Z,39.60
2018-08-16T11:28:38.143Z,39.30
2018-08-16T11:30:44.291Z,38.90
2018-08-16T11:32:48.788Z,38.80
2018-08-16T11:34:54.187Z,38.40
2018-08-16T11:36:58.575Z,38.10
2018-08-16T11:39:03.250Z,38.00
2018-08-16T11:41:07.709Z,37.80
2018-08-16T11:43:12.167Z,37.80
2018-08-16T11:45:16.683Z,37.70
2018-08-16T11:47:21.386Z,37.50
2018-08-16T11:49:25.948Z,37.10
2018-08-16T11:51:30.406Z,37.10
2018-08-16T11:53:35.672Z,37.40
2018-08-16T11:55:40.178Z,37.50
2018-08-16T11:57:44.994Z,37.50
2018-08-16T11:59:49.366Z,37.60
2018-08-16T12:01:54.864Z,37.60
2018-08-16T12:03:59.622Z,37.70
2018-08-16T12:06:04.123Z,37.00
2018-08-16T12:08:08.604Z,37.40
2018-08-16T12:10:13.218Z,36.30
2018-08-16T12:12:17.737Z,36.10
2018-08-16T12:14:22.171Z,36.10
2018-08-16T12:16:26.614Z,36.00
2018-08-16T12:18:31.186Z,35.20
2018-08-16T12:20:35.793Z,35.20
2018-08-16T12:22:40.243Z,35.20
2018-08-16T12:24:44.759Z,35.40
2018-08-16T12:26:49.263Z,35.30
2018-08-16T12:28:53.818Z,35.10
2018-08-16T12:30:58.274Z,34.50
2018-08-16T12:33:02.703Z,34.50
2018-08-16T12:35:08.342Z,34.50
2018-08-16T12:37:12.747Z,34.60
2018-08-16T12:39:17.831Z,34.60
2018-08-16T12:41:23.141Z,34.60
2018-08-16T12:43:35.755Z,34.60
2018-08-16T12:45:40.534Z,34.60
2018-08-16T12:47:45.217Z,35.40
2018-08-16T12:49:49.623Z,34.70
2018-08-16T12:51:54.305Z,34.80
2018-08-16T12:53:58.818Z,34.40
2018-08-16T12:56:03.676Z,34.40
2018-08-16T12:58:08.490Z,34.40
2018-08-16T13:00:17.318Z,34.20
2018-08-16T13:02:21.786Z,33.70
2018-08-16T13:04:26.782Z,33.20
2018-08-16T13:06:32.116Z,33.00
2018-08-16T13:08:36.626Z,33.20
2018-08-16T13:10:41.115Z,33.30
2018-08-16T13:12:46.010Z,33.70
2018-08-16T13:14:50.500Z,33.70
2018-08-16T13:16:54.983Z,33.90
2018-08-16T13:18:59.419Z,33.90
2018-08-16T13:21:04.441Z,33.70
2018-08-16T13:23:09.322Z,33.60
2018-08-16T13:25:13.799Z,33.60
2018-08-16T13:27:18.299Z,33.50
2018-08-16T13:29:22.820Z,33.80
2018-08-16T13:31:27.211Z,33.30
2018-08-16T13:33:31.854Z,33.20
2018-08-16T13:35:36.610Z,33.10
2018-08-16T13:37:41.059Z,33.00
2018-08-16T13:39:45.563Z,33.30
2018-08-16T13:41:50.070Z,33.20
2018-08-16T13:43:55.301Z,33.00
2018-08-16T13:45:59.794Z,32.90
2018-08-16T13:48:04.479Z,32.90
2018-08-16T13:50:09.282Z,33.00
2018-08-16T13:52:13.726Z,32.80
2018-08-16T13:54:18.325Z,32.50
2018-08-16T13:56:22.743Z,32.30
2018-08-16T13:58:27.167Z,32.30
2018-08-16T14:00:32.012Z,32.30
2018-08-16T14:02:36.554Z,32.10
2018-08-16T14:04:41.406Z,32.00
2018-08-16T14:06:45.847Z,32.20
2018-08-16T14:08:50.250Z,32.00
2018-08-16T14:10:54.719Z,31.80
2018-08-16T14:12:59.347Z,32.00
2018-08-16T14:15:07.531Z,31.40
2018-08-16T14:17:11.934Z,31.50
2018-08-16T14:19:16.431Z,30.80
2018-08-16T14:21:20.882Z,31.00
2018-08-16T14:23:25.864Z,30.80
2018-08-16T14:25:30.366Z,31.00
2018-08-16T14:27:34.971Z,31.00
2018-08-16T14:29:39.422Z,30.70
2018-08-16T14:31:43.874Z,30.90
2018-08-16T14:33:48.435Z,31.30
2018-08-16T14:35:52.891Z,30.70
2018-08-16T14:37:57.318Z,30.40
2018-08-16T14:40:01.767Z,30.60
2018-08-16T14:42:06.334Z,30.30
2018-08-16T14:44:10.823Z,29.90
2018-08-16T14:46:15.482Z,29.50
2018-08-16T14:48:19.942Z,29.40
2018-08-16T14:50:29.181Z,29.20
2018-08-16T14:52:37.305Z,29.30
2018-08-16T14:54:41.863Z,29.30
2018-08-16T14:56:46.535Z,29.10
2018-08-16T14:58:51.185Z,29.20
2018-08-16T15:00:55.700Z,29.10
2018-08-16T15:03:00.154Z,29.30
2018-08-16T15:05:05.893Z,29.00
2018-08-16T15:07:10.303Z,29.00
2018-08-16T15:09:14.747Z,29.20
2018-08-16T15:11:19.361Z,29.30
2018-08-16T15:13:23.766Z,29.40
2018-08-16T15:15:28.255Z,29.20
2018-08-16T15:17:32.742Z,29.40
2018-08-16T15:19:38.119Z,29.00
2018-08-16T15:21:42.956Z,28.90
2018-08-16T15:23:47.436Z,28.70
2018-08-16T15:25:51.914Z,28.60
2018-08-16T15:27:57.022Z,28.80
2018-08-16T15:30:01.435Z,28.80
2018-08-16T15:32:06.028Z,28.90
2018-08-16T15:34:12.241Z,29.10
2018-08-16T15:36:18.074Z,29.30
2018-08-16T15:38:22.997Z,29.10
2018-08-16T15:40:27.452Z,28.80
2018-08-16T15:42:31.911Z,29.10
2018-08-16T15:44:37.902Z,28.80
2018-08-16T15:46:42.473Z,28.80
2018-08-16T15:48:46.913Z,29.20
2018-08-16T15:50:51.409Z,28.90
2018-08-16T15:52:55.910Z,28.80
2018-08-16T15:55:00.502Z,28.70
2018-08-16T15:57:05.281Z,28.90
2018-08-16T15:59:09.751Z,29.50
2018-08-16T16:01:14.402Z,29.50
2018-08-16T16:03:18.802Z,29.30
2018-08-16T16:05:23.240Z,29.40
2018-08-16T16:07:28.448Z,30.00
2018-08-16T16:09:32.883Z,30.70
2018-08-16T16:11:37.338Z,30.20
2018-08-16T16:13:42.475Z,30.80
2018-08-16T16:15:46.867Z,30.90
2018-08-16T16:17:52.264Z,30.50
2018-08-16T16:19:56.724Z,30.80
2018-08-16T16:22:01.951Z,31.80
2018-08-16T16:24:06.491Z,32.10
2018-08-16T16:26:10.942Z,33.20
2018-08-16T16:28:15.439Z,32.60
2018-08-16T16:30:20.486Z,32.90
2018-08-16T16:32:24.962Z,32.60
2018-08-16T16:34:30.268Z,33.10
2018-08-16T16:36:34.709Z,33.50
2018-08-16T16:38:39.499Z,34.80
2018-08-16T16:40:44.114Z,34.20
2018-08-16T16:42:48.597Z,34.40
2018-08-16T16:44:53.062Z,34.60
2018-08-16T16:46:57.549Z,34.70
2018-08-16T16:49:02.066Z,34.40
2018-08-16T16:51:07.125Z,34.90
2018-08-16T16:53:12.331Z,35.50
2018-08-16T16:55:17.114Z,35.90
2018-08-16T16:57:21.571Z,36.30
2018-08-16T16:59:26.355Z,36.70
2018-08-16T17:01:30.808Z,37.50
2018-08-16T17:03:35.748Z,36.90
2018-08-16T17:05:40.380Z,36.60
2018-08-16T17:07:45.084Z,37.30
2018-08-16T17:09:49.675Z,37.70
2018-08-16T17:11:54.158Z,37.60
2018-08-16T17:13:58.935Z,37.80
2018-08-16T17:16:04.063Z,37.80
2018-08-16T17:18:09.123Z,38.00
2018-08-16T17:20:13.579Z,37.90
2018-08-16T17:22:19.346Z,38.30
2018-08-16T17:24:27.998Z,38.30
2018-08-16T17:26:34.651Z,38.40
2018-08-16T17:28:43.144Z,38.60
2018-08-16T17:30:48.556Z,38.80
2018-08-16T17:32:54.417Z,39.20
2018-08-16T17:35:04.150Z,39.20
2018-08-16T17:37:09.473Z,39.10
2018-08-16T17:39:13.984Z,39.00
2018-08-16T17:41:18.473Z,39.10
2018-08-16T17:43:22.901Z,39.20
2018-08-16T17:45:27.558Z,39.50
2018-08-16T17:47:32.006Z,39.50
2018-08-16T17:49:36.463Z,40.00
2018-08-16T17:51:41.891Z,40.10
2018-08-16T17:53:46.483Z,40.30
2018-08-16T17:55:51.304Z,40.60
2018-08-16T17:58:01.759Z,40.70
2018-08-16T18:00:13.310Z,40.90
2018-08-16T18:02:17.889Z,41.20
2018-08-16T18:04:22.867Z,41.30
2018-08-16T18:06:27.406Z,41.50
2018-08-16T18:08:31.870Z,41.60
2018-08-16T18:10:36.361Z,41.80
2018-08-16T18:12:41.716Z,42.00
2018-08-16T18:14:46.169Z,42.20
2018-08-16T18:16:50.569Z,42.50
2018-08-16T18:18:55.685Z,43.60
2018-08-16T18:21:00.082Z,43.10
2018-08-16T18:23:04.543Z,43.30
2018-08-16T18:25:09.356Z,43.60
2018-08-16T18:27:13.849Z,43.80
2018-08-16T18:29:18.318Z,44.00
2018-08-16T18:31:22.814Z,44.10
2018-08-16T18:33:27.360Z,44.30
2018-08-16T18:35:32.170Z,44.50
2018-08-16T18:37:37.583Z,44.70
2018-08-16T18:39:42.036Z,44.90
2018-08-16T18:41:46.446Z,45.10
2018-08-16T18:43:50.963Z,45.20
2018-08-16T18:45:55.890Z,45.30
2018-08-16T18:48:00.510Z,45.60
2018-08-16T18:50:05.654Z,45.50
2018-08-16T18:52:10.549Z,45.80
2018-08-16T18:54:15.683Z,45.90
2018-08-16T18:56:20.215Z,46.00
2018-08-16T18:58:24.858Z,46.20
2018-08-16T19:00:29.627Z,46.40
2018-08-16T19:02:34.096Z,46.50
2018-08-16T19:04:40.866Z,46.60
2018-08-16T19:06:45.547Z,46.80
2018-08-16T19:08:50.159Z,46.90
2018-08-16T19:10:54.632Z,47.20
2018-08-16T19:13:00.179Z,47.40
2018-08-16T19:15:05.146Z,47.60
2018-08-16T19:17:09.735Z,47.60
2018-08-16T19:19:14.556Z,47.70
2018-08-16T19:21:19.054Z,47.80
2018-08-16T19:23:23.522Z,48.00
2018-08-16T19:25:28.303Z,48.10
2018-08-16T19:27:32.715Z,48.20
2018-08-16T19:29:39.076Z,48.30
2018-08-16T19:31:43.495Z,48.40
2018-08-16T19:33:48.624Z,48.60
2018-08-16T19:35:53.120Z,48.70
2018-08-16T19:37:57.534Z,48.70
2018-08-16T19:40:02.078Z,48.90
2018-08-16T19:42:06.784Z,49.00
2018-08-16T19:44:11.465Z,49.10
2018-08-16T19:46:15.926Z,49.20
2018-08-16T19:48:20.401Z,49.30
2018-08-16T19:50:24.844Z,49.40
2018-08-16T19:52:29.243Z,49.50
2018-08-16T19:54:33.676Z,49.70
2018-08-16T19:56:38.234Z,49.80
2018-08-16T19:58:43.275Z,49.90
2018-08-16T20:00:47.827Z,49.90
2018-08-16T20:02:52.271Z,50.30
2018-08-16T20:04:56.716Z,50.40
2018-08-16T20:07:01.463Z,50.50
2018-08-16T20:09:09.361Z,50.60
2018-08-16T20:11:13.857Z,50.60
2018-08-16T20:13:19.289Z,50.50
2018-08-16T20:15:23.764Z,50.50
2018-08-16T20:17:28.182Z,50.70
2018-08-16T20:19:32.994Z,50.70
2018-08-16T20:21:37.709Z,50.90
2018-08-16T20:23:42.145Z,51.00
2018-08-16T20:25:46.586Z,51.20
2018-08-16T20:27:51.451Z,51.20
2018-08-16T20:29:55.911Z,51.60
2018-08-16T20:32:00.563Z,51.20
2018-08-16T20:34:05.034Z,51.30
2018-08-16T20:36:09.668Z,51.30
2018-08-16T20:38:14.111Z,51.40
2018-08-16T20:40:18.636Z,51.50
2018-08-16T20:42:23.194Z,51.60
2018-08-16T20:44:28.106Z,51.70
2018-08-16T20:46:32.842Z,51.80
2018-08-16T20:48:37.386Z,51.80
2018-08-16T20:50:41.810Z,51.90
2018-08-16T20:52:46.231Z,51.90
2018-08-16T20:54:51.197Z,52.10
2018-08-16T20:56:55.651Z,52.20
2018-08-16T20:59:00.054Z,52.30
2018-08-16T21:01:04.693Z,52.40
2018-08-16T21:03:09.659Z,52.60
2018-08-16T21:05:14.090Z,52.60
2018-08-16T21:07:18.875Z,52.60
2018-08-16T21:09:23.769Z,52.70
2018-08-16T21:11:28.238Z,52.70
2018-08-16T21:13:33.225Z,52.80
2018-08-16T21:15:38.236Z,52.90
2018-08-16T21:17:43.340Z,53.00
2018-08-16T21:19:48.418Z,53.20
2018-08-16T21:21:53.311Z,53.20
2018-08-16T21:23:57.862Z,53.40
2018-08-16T21:26:02.650Z,53.60
2018-08-16T21:28:07.812Z,53.80
2018-08-16T21:30:12.811Z,54.00
2018-08-16T21:32:18.473Z,53.80
2018-08-16T21:34:23.072Z,54.10
2018-08-16T21:36:27.842Z,54.10
2018-08-16T21:38:33.295Z,54.30
2018-08-16T21:40:38.451Z,54.40
2018-08-16T21:42:43.034Z,54.40
2018-08-16T21:44:50.923Z,54.60
2018-08-16T21:46:56.557Z,54.60
2018-08-16T21:49:02.253Z,54.80
2018-08-16T21:51:07.248Z,54.80
2018-08-16T21:53:12.125Z,54.80
2018-08-16T21:55:17.238Z,55.00
2018-08-16T21:57:21.723Z,55.60
2018-08-16T21:59:26.128Z,55.00
2018-08-16T22:01:30.586Z,55.10
2018-08-16T22:03:37.323Z,55.10
2018-08-16T22:05:54.701Z,55.10
2018-08-16T22:08:12.506Z,55.30
2018-08-16T22:10:17.075Z,55.50
2018-08-16T22:12:21.528Z,55.50
2018-08-16T22:14:26.246Z,55.70
2018-08-16T22:16:30.742Z,55.70
2018-08-16T22:18:37.165Z,55.80
2018-08-16T22:20:42.335Z,56.00
2018-08-16T22:22:46.808Z,56.00
2018-08-16T22:24:51.435Z,56.20
2018-08-16T22:26:56.082Z,56.20
2018-08-16T22:29:01.036Z,56.30
2018-08-16T22:31:05.516Z,56.20
2018-08-16T22:33:15.630Z,56.20
2018-08-16T22:35:25.096Z,56.90
2018-08-16T22:37:35.827Z,56.20
2018-08-16T22:39:40.466Z,56.20
2018-08-16T22:41:46.210Z,56.40
2018-08-16T22:43:52.671Z,56.60
2018-08-16T22:46:03.199Z,56.50
2018-08-16T22:48:12.832Z,56.50
2018-08-16T22:50:20.482Z,56.60
2018-08-16T22:52:30.026Z,56.70
2018-08-16T22:54:38.118Z,56.70
2018-08-16T22:56:43.922Z,56.70
2018-08-16T22:58:49.185Z,56.90
2018-08-16T23:00:56.035Z,56.90
2018-08-16T23:03:05.047Z,57.00
2018-08-16T23:05:11.688Z,57.00
2018-08-16T23:07:17.648Z,57.00
2018-08-16T23:09:26.746Z,57.10
2018-08-16T23:11:34.205Z,57.20
2018-08-16T23:13:41.465Z,57.40
2018-08-16T23:15:49.259Z,57.30
2018-08-16T23:17:56.753Z,57.90
2018-08-16T23:20:01.307Z,57.40
2018-08-16T23:22:05.781Z,57.40
2018-08-16T23:24:14.105Z,57.40
2018-08-16T23:26:18.601Z,57.60
2018-08-16T23:28:23.091Z,57.70
2018-08-16T23:30:27.547Z,57.70
2018-08-16T23:32:31.981Z,57.90
2018-08-16T23:34:36.590Z,57.90
2018-08-16T23:36:41.742Z,58.00
2018-08-16T23:38:49.041Z,58.10
2018-08-16T23:40:53.854Z,58.20
2018-08-16T23:42:58.295Z,58.30
2018-08-16T23:45:02.955Z,58.30
2018-08-16T23:47:07.430Z,58.40
2018-08-16T23:49:17.234Z,58.50
2018-08-16T23:51:24.238Z,58.30
2018-08-16T23:53:28.842Z,58.50
2018-08-16T23:55:33.262Z,58.50
2018-08-16T23:57:40.569Z,58.40
2018-08-16T23:59:48.294Z,58.40
